createdAt,value
2018-05-17T00:00:26.617Z,14.09
2018-05-17T00:08:51.511Z,13.88
2018-05-17T00:11:18.989Z,14.05
2018-05-17T00:13:46.473Z,14.00
2018-05-17T00:16:13.947Z,14.06
2018-05-17T00:18:41.443Z,13.98
2018-05-17T00:21:08.943Z,14.14
2018-05-17T00:23:36.411Z,14.12
2018-05-17T00:26:03.891Z,14.20
2018-05-17T00:28:31.354Z,14.28
2018-05-17T00:30:58.861Z,14.39
2018-05-17T00:33:26.371Z,14.26
2018-05-17T00:35:53.908Z,14.49
2018-05-17T00:38:21.425Z,14.53
2018-05-17T00:40:48.997Z,14.42
2018-05-17T00:43:16.490Z,14.53
2018-05-17T00:45:43.996Z,14.54
2018-05-17T00:48:11.492Z,14.62
2018-05-17T00:50:38.960Z,14.71
2018-05-17T00:53:18.250Z,14.63
2018-05-17T00:55:45.720Z,14.38
2018-05-17T00:58:13.266Z,14.07
2018-05-17T01:00:40.745Z,13.84
2018-05-17T01:03:08.230Z,13.96
2018-05-17T01:13:56.224Z,14.01
2018-05-17T01:16:24.414Z,14.05
2018-05-17T01:21:42.063Z,14.21
2018-05-17T01:41:13.920Z,14.30
2018-05-17T01:46:33.800Z,14.25
2018-05-17T01:49:01.272Z,14.45
2018-05-17T01:51:28.768Z,14.29
2018-05-17T01:53:56.248Z,14.43
2018-05-17T01:56:23.717Z,14.50
2018-05-17T01:58:51.197Z,14.42
2018-05-17T02:01:18.703Z,14.45
2018-05-17T02:03:46.185Z,14.46
2018-05-17T02:34:40.217Z,14.48
2018-05-17T02:37:07.690Z,14.44
2018-05-17T02:39:35.200Z,14.42
2018-05-17T02:44:53.140Z,14.42
2018-05-17T03:04:25.058Z,14.24
2018-05-17T03:23:57.439Z,14.66
2018-05-17T03:37:47.398Z,14.51
2018-05-17T03:40:15.765Z,14.41
2018-05-17T03:42:43.245Z,14.43
2018-05-17T03:45:10.797Z,14.40
2018-05-17T03:47:38.264Z,14.51
2018-05-17T03:50:05.731Z,14.48
2018-05-17T03:52:33.203Z,14.45
2018-05-17T03:55:00.684Z,14.22
2018-05-17T03:57:28.177Z,14.40
2018-05-17T03:59:55.657Z,14.51
2018-05-17T04:02:34.831Z,14.49
2018-05-17T04:05:14.171Z,14.51
2018-05-17T04:07:41.647Z,14.46
2018-05-17T04:10:09.121Z,14.49
2018-05-17T04:12:36.590Z,14.52
2018-05-17T04:15:04.091Z,14.58
2018-05-17T04:17:31.581Z,14.51
2018-05-17T04:19:59.054Z,14.56
2018-05-17T04:22:26.558Z,14.34
2018-05-17T04:24:54.076Z,14.33
2018-05-17T04:27:21.551Z,14.37
2018-05-17T04:29:49.045Z,14.35
2018-05-17T04:32:16.525Z,14.34
2018-05-17T04:34:44.016Z,14.31
2018-05-17T04:37:11.514Z,14.34
2018-05-17T04:39:38.993Z,14.35
2018-05-17T04:42:06.488Z,14.38
2018-05-17T04:44:33.974Z,14.42
2018-05-17T04:47:01.479Z,14.41
2018-05-17T04:49:28.955Z,14.45
2018-05-17T04:51:56.465Z,14.55
2018-05-17T04:54:24.215Z,14.54
2018-05-17T04:56:51.708Z,14.57
2018-05-17T04:59:19.187Z,14.56
2018-05-17T05:01:46.668Z,14.50
2018-05-17T05:04:14.458Z,14.59
2018-05-17T05:06:42.236Z,14.78
2018-05-17T05:09:09.724Z,14.79
2018-05-17T05:11:37.201Z,14.85
2018-05-17T05:14:04.689Z,15.04
2018-05-17T05:16:32.185Z,14.84
2018-05-17T05:18:59.690Z,14.85
2018-05-17T05:21:28.028Z,14.81
2018-05-17T05:23:55.514Z,14.68
2018-05-17T05:26:23.002Z,14.66
2018-05-17T05:28:50.473Z,14.76
2018-05-17T05:31:17.984Z,14.87
2018-05-17T05:33:45.464Z,14.87
2018-05-17T05:36:12.941Z,14.75
2018-05-17T05:38:40.423Z,14.83
2018-05-17T05:41:07.894Z,14.89
2018-05-17T05:43:35.374Z,14.91
2018-05-17T05:46:02.847Z,15.03
2018-05-17T05:48:30.327Z,15.12
2018-05-17T05:50:57.811Z,15.34
2018-05-17T05:53:25.286Z,15.48
2018-05-17T05:55:52.787Z,15.64
2018-05-17T05:58:20.276Z,15.79
2018-05-17T06:00:47.745Z,15.78
2018-05-17T06:03:15.219Z,15.76
2018-05-17T06:05:42.697Z,15.89
2018-05-17T06:08:10.192Z,15.85
2018-05-17T06:10:37.682Z,15.83
2018-05-17T06:13:05.153Z,15.81
2018-05-17T06:15:33.339Z,15.62
2018-05-17T06:18:00.816Z,15.78
2018-05-17T06:20:28.333Z,15.65
2018-05-17T06:22:55.841Z,15.55
2018-05-17T06:25:23.337Z,15.50
2018-05-17T06:27:50.807Z,15.62
2018-05-17T06:30:23.193Z,15.78
2018-05-17T06:32:50.753Z,15.46
2018-05-17T06:35:18.225Z,15.33
2018-05-17T06:37:45.726Z,15.27
2018-05-17T06:40:13.191Z,15.08
2018-05-17T06:48:22.718Z,15.36
2018-05-17T06:50:50.217Z,15.12
2018-05-17T06:53:17.784Z,15.06
2018-05-17T06:55:45.253Z,15.20
2018-05-17T06:58:12.733Z,15.23
2018-05-17T07:00:40.232Z,15.13
2018-05-17T07:03:08.736Z,15.14
2018-05-17T07:05:36.256Z,15.06
2018-05-17T07:08:03.738Z,15.21
2018-05-17T07:10:31.275Z,15.27
2018-05-17T07:12:58.739Z,15.30
2018-05-17T07:15:26.228Z,15.27
2018-05-17T07:17:53.810Z,15.29
2018-05-17T07:20:21.203Z,15.43
2018-05-17T07:22:48.685Z,15.27
2018-05-17T07:25:16.135Z,15.15
2018-05-17T07:27:43.610Z,15.22
2018-05-17T07:33:19.512Z,14.82
2018-05-17T07:35:46.990Z,14.80
2018-05-17T08:09:38.892Z,14.70
2018-05-17T08:12:06.369Z,14.89
2018-05-17T08:14:33.865Z,14.79
2018-05-17T08:17:01.333Z,14.66
2018-05-17T08:19:28.811Z,14.55
2018-05-17T08:21:56.303Z,14.60
2018-05-17T08:24:23.774Z,14.69
2018-05-17T08:27:04.281Z,14.57
2018-05-17T08:29:31.775Z,14.54
2018-05-17T08:40:31.399Z,14.78
2018-05-17T08:42:58.886Z,14.69
2018-05-17T08:45:26.365Z,14.45
2018-05-17T08:47:53.845Z,14.84
2018-05-17T08:50:21.330Z,14.79
2018-05-17T08:52:48.809Z,14.59
2018-05-17T08:55:16.292Z,14.66
2018-05-17T08:57:43.773Z,14.70
2018-05-17T09:00:11.271Z,14.96
2018-05-17T09:02:38.765Z,15.13
2018-05-17T09:05:06.245Z,15.18
2018-05-17T09:07:33.716Z,15.15
2018-05-17T09:10:01.188Z,14.90
2018-05-17T09:12:28.670Z,15.11
2018-05-17T09:14:56.144Z,15.11
2018-05-17T09:17:23.653Z,14.97
2018-05-17T09:19:51.113Z,15.17
2018-05-17T09:22:18.619Z,15.31
2018-05-17T09:24:46.551Z,15.35
2018-05-17T09:27:14.025Z,15.62
2018-05-17T09:29:41.584Z,15.78
2018-05-17T09:32:09.071Z,15.81
2018-05-17T09:34:36.584Z,15.91
2018-05-17T09:37:04.062Z,16.01
2018-05-17T09:39:31.534Z,15.87
2018-05-17T09:41:59.022Z,15.88
2018-05-17T09:44:26.509Z,15.99
2018-05-17T09:46:53.996Z,16.42
2018-05-17T09:49:21.493Z,16.32
2018-05-17T09:51:48.989Z,16.32
2018-05-17T09:54:16.452Z,16.18
2018-05-17T09:56:43.953Z,16.13
2018-05-17T09:59:11.451Z,16.17
2018-05-17T10:01:38.941Z,16.12
2018-05-17T10:04:06.428Z,16.13
2018-05-17T10:06:33.917Z,16.18
2018-05-17T10:09:01.383Z,15.92
2018-05-17T10:11:28.852Z,16.14
2018-05-17T10:13:56.347Z,16.12
2018-05-17T10:16:23.821Z,16.08
2018-05-17T10:18:51.323Z,16.35
2018-05-17T10:21:18.804Z,16.43
2018-05-17T10:23:46.368Z,16.66
2018-05-17T10:26:13.880Z,16.35
2018-05-17T10:28:41.354Z,15.90
2018-05-17T10:31:08.833Z,15.59
2018-05-17T10:33:36.312Z,15.78
2018-05-17T10:36:03.793Z,15.77
2018-05-17T10:38:31.314Z,15.62
2018-05-17T10:40:58.789Z,15.77
2018-05-17T10:43:26.254Z,15.71
2018-05-17T10:45:53.738Z,15.46
2018-05-17T10:48:21.220Z,15.63
2018-05-17T10:50:48.738Z,15.83
2018-05-17T10:53:16.212Z,15.93
2018-05-17T10:55:43.690Z,16.05
2018-05-17T10:58:11.211Z,16.20
2018-05-17T11:00:38.687Z,16.02
2018-05-17T11:03:06.176Z,15.77
2018-05-17T11:05:33.656Z,15.66
2018-05-17T11:08:01.133Z,15.69
2018-05-17T11:10:28.636Z,15.40
2018-05-17T11:12:56.127Z,15.57
2018-05-17T11:15:23.693Z,15.62
2018-05-17T11:17:51.205Z,15.62
2018-05-17T11:20:18.683Z,15.94
2018-05-17T11:22:46.212Z,16.28
2018-05-17T11:25:13.691Z,16.48
2018-05-17T11:27:41.167Z,16.58
2018-05-17T11:30:08.645Z,16.67
2018-05-17T11:32:36.118Z,17.17
2018-05-17T11:35:03.597Z,17.01
2018-05-17T11:37:31.073Z,16.97
2018-05-17T11:39:58.562Z,16.75
2018-05-17T11:42:26.038Z,16.82
2018-05-17T11:44:53.561Z,17.00
2018-05-17T11:47:21.033Z,17.33
2018-05-17T11:49:48.580Z,17.59
2018-05-17T11:52:16.082Z,17.28
2018-05-17T11:54:43.561Z,17.09
2018-05-17T11:57:11.044Z,17.85
2018-05-17T11:59:38.615Z,18.07
2018-05-17T12:02:06.123Z,17.76
2018-05-17T12:04:33.710Z,17.24
2018-05-17T12:07:01.184Z,17.42
2018-05-17T12:09:28.669Z,17.60
2018-05-17T12:11:56.139Z,17.78
2018-05-17T12:14:23.616Z,17.96
2018-05-17T12:19:24.940Z,18.83
2018-05-17T12:21:52.416Z,19.03
2018-05-17T12:24:20.366Z,19.04
2018-05-17T12:26:47.893Z,18.73
2018-05-17T12:29:15.368Z,18.31
2018-05-17T12:31:43.019Z,18.10
2018-05-17T12:34:10.446Z,18.54
2018-05-17T12:36:37.927Z,18.60
2018-05-17T12:39:06.238Z,18.59
2018-05-17T12:41:33.802Z,18.73
2018-05-17T12:44:01.288Z,18.54
2018-05-17T12:46:28.777Z,18.99
2018-05-17T12:48:56.273Z,19.10
2018-05-17T12:51:23.787Z,18.94
2018-05-17T12:53:51.253Z,18.75
2018-05-17T12:56:18.731Z,18.81
2018-05-17T12:58:46.313Z,18.73
2018-05-17T13:01:15.287Z,18.53
2018-05-17T13:03:43.302Z,19.10
2018-05-17T13:06:10.816Z,18.78
2018-05-17T13:08:38.283Z,18.81
2018-05-17T13:11:05.747Z,18.64
2018-05-17T13:13:33.227Z,18.82
2018-05-17T13:16:00.709Z,18.92
2018-05-17T13:18:28.180Z,18.96
2018-05-17T13:20:55.684Z,18.98
2018-05-17T13:23:23.202Z,19.53
2018-05-17T13:25:50.688Z,19.40
2018-05-17T13:28:18.178Z,19.38
2018-05-17T13:30:45.688Z,19.57
2018-05-17T13:33:13.164Z,19.10
2018-05-17T13:35:40.645Z,18.87
2018-05-17T13:38:08.118Z,18.86
2018-05-17T13:40:36.191Z,18.94
2018-05-17T13:43:03.692Z,18.52
2018-05-17T13:45:31.291Z,18.68
2018-05-17T13:47:58.792Z,18.73
2018-05-17T13:50:26.252Z,18.83
2018-05-17T13:52:53.731Z,18.72
2018-05-17T13:55:21.199Z,18.61
2018-05-17T13:57:48.691Z,18.50
2018-05-17T14:00:16.191Z,18.68
2018-05-17T14:02:43.770Z,18.85
2018-05-17T14:05:11.169Z,20.84
2018-05-17T14:07:38.658Z,21.67
2018-05-17T14:10:06.130Z,21.73
2018-05-17T14:12:33.665Z,21.71
2018-05-17T14:15:01.128Z,21.36
2018-05-17T14:17:28.612Z,20.73
2018-05-17T14:19:59.040Z,20.18
2018-05-17T14:22:28.044Z,19.70
2018-05-17T14:24:56.989Z,19.19
2018-05-17T14:27:24.932Z,18.75
2018-05-17T14:29:53.446Z,19.15
2018-05-17T14:41:10.225Z,19.86
2018-05-17T14:43:37.700Z,20.14
2018-05-17T14:46:07.197Z,20.44
2018-05-17T14:48:35.214Z,20.47
2018-05-17T14:51:04.309Z,20.82
2018-05-17T14:53:32.036Z,20.49
2018-05-17T14:55:59.624Z,19.79
2018-05-17T14:58:27.669Z,19.76
2018-05-17T15:00:55.322Z,19.35
2018-05-17T15:03:22.824Z,18.94
2018-05-17T15:05:50.304Z,19.13
2018-05-17T15:08:17.788Z,19.78
2018-05-17T15:10:45.302Z,20.83
2018-05-17T15:13:16.032Z,21.73
2018-05-17T15:15:45.822Z,21.83
2018-05-17T15:18:14.307Z,21.32
2018-05-17T15:20:42.632Z,20.81
2018-05-17T15:23:10.089Z,20.19
2018-05-17T15:25:37.986Z,20.04
2018-05-17T15:51:08.282Z,20.02
2018-05-17T15:53:37.771Z,19.53
2018-05-17T15:56:05.283Z,19.75
2018-05-17T15:58:32.760Z,19.61
2018-05-17T16:01:00.440Z,19.83
2018-05-17T16:03:28.071Z,20.36
2018-05-17T16:20:22.036Z,23.35
2018-05-17T16:39:55.132Z,24.74
2018-05-17T16:42:22.600Z,24.22
2018-05-17T16:44:50.099Z,22.62
2018-05-17T16:47:17.568Z,21.81
2018-05-17T16:49:45.028Z,21.23
2018-05-17T16:52:12.491Z,20.59
2018-05-17T17:00:20.743Z,19.41
2018-05-17T17:02:48.264Z,19.56
2018-05-17T17:05:15.763Z,19.16
2018-05-17T17:07:43.287Z,19.03
2018-05-17T17:10:10.864Z,19.82
2018-05-17T17:12:38.729Z,19.85
2018-05-17T17:15:10.636Z,20.42
2018-05-17T17:17:40.904Z,20.73
2018-05-17T17:20:08.586Z,20.46
2018-05-17T17:22:36.096Z,19.94
2018-05-17T17:25:03.666Z,19.71
2018-05-17T17:27:31.165Z,19.71
2018-05-17T17:29:58.684Z,19.27
2018-05-17T17:32:26.174Z,19.19
2018-05-17T17:34:53.704Z,18.84
2018-05-17T17:37:21.195Z,18.44
2018-05-17T17:39:48.745Z,18.29
2018-05-17T17:42:16.230Z,18.16
2018-05-17T17:44:43.733Z,17.97
2018-05-17T17:47:11.222Z,17.57
2018-05-17T17:49:38.778Z,17.56
2018-05-17T17:52:06.269Z,17.48
2018-05-17T17:54:33.797Z,17.48
2018-05-17T17:57:01.303Z,17.31
2018-05-17T17:59:29.421Z,17.26
2018-05-17T18:01:59.723Z,17.11
2018-05-17T18:04:29.538Z,17.08
2018-05-17T18:06:59.975Z,16.99
2018-05-17T18:09:28.636Z,17.24
2018-05-17T18:11:57.262Z,17.14
2018-05-17T18:14:24.907Z,17.26
2018-05-17T18:16:52.625Z,17.19
2018-05-17T18:19:22.372Z,17.11
2018-05-17T18:21:50.092Z,17.08
2018-05-17T18:24:18.056Z,17.12
2018-05-17T18:26:45.908Z,17.02
2018-05-17T18:29:13.581Z,17.07
2018-05-17T18:31:41.821Z,16.85
2018-05-17T18:34:09.370Z,16.83
2018-05-17T18:36:36.886Z,16.64
2018-05-17T18:39:04.526Z,16.54
2018-05-17T18:41:32.027Z,16.29
2018-05-17T18:43:59.565Z,16.31
2018-05-17T18:46:27.071Z,16.29
2018-05-17T18:48:54.617Z,16.05
2018-05-17T18:51:22.103Z,16.08
2018-05-17T18:53:49.661Z,15.95
2018-05-17T18:56:17.167Z,15.91
2018-05-17T18:58:44.684Z,15.80
2018-05-17T19:01:12.192Z,15.73
2018-05-17T19:03:39.695Z,15.75
2018-05-17T19:06:07.399Z,15.62
2018-05-17T19:08:34.921Z,15.54
2018-05-17T19:11:02.414Z,15.43
2018-05-17T19:13:29.930Z,15.38
2018-05-17T19:15:57.546Z,15.41
2018-05-17T19:18:25.046Z,15.35
2018-05-17T19:20:53.180Z,15.28
2018-05-17T19:23:20.680Z,15.28
2018-05-17T19:25:48.283Z,15.26
2018-05-17T19:28:15.725Z,15.35
2018-05-17T19:30:43.231Z,15.32
2018-05-17T19:33:10.742Z,15.26
2018-05-17T19:35:38.271Z,15.09
2018-05-17T19:38:05.777Z,15.02
2018-05-17T19:40:33.283Z,14.91
2018-05-17T19:43:00.785Z,15.04
2018-05-17T19:45:28.306Z,14.93
2018-05-17T19:47:55.827Z,15.01
2018-05-17T19:50:23.350Z,14.90
2018-05-17T19:52:50.884Z,14.85
2018-05-17T19:55:18.392Z,14.74
2018-05-17T19:57:45.890Z,14.61
2018-05-17T20:00:13.384Z,14.46
2018-05-17T20:02:40.920Z,14.41
2018-05-17T20:05:08.416Z,14.33
2018-05-17T20:07:35.949Z,14.22
2018-05-17T20:10:03.453Z,14.10
2018-05-17T20:12:30.965Z,14.02
2018-05-17T20:14:58.463Z,13.90
2018-05-17T20:17:25.973Z,13.88
2018-05-17T20:19:53.468Z,13.81
2018-05-17T20:22:20.966Z,13.77
2018-05-17T20:24:48.449Z,13.69
2018-05-17T20:27:15.962Z,13.69
2018-05-17T20:29:43.478Z,13.59
2018-05-17T20:32:10.988Z,13.65
2018-05-17T20:34:38.509Z,13.65
2018-05-17T20:37:07.030Z,13.71
2018-05-17T20:39:37.546Z,13.73
2018-05-17T20:42:06.368Z,13.75
2018-05-17T20:44:34.102Z,13.83
2018-05-17T20:47:01.597Z,13.84
2018-05-17T20:49:29.102Z,13.90
2018-05-17T20:51:56.594Z,13.93
2018-05-17T20:54:24.082Z,14.11
2018-05-17T20:56:51.621Z,14.12
2018-05-17T20:59:19.121Z,14.15
2018-05-17T21:01:46.627Z,14.13
2018-05-17T21:04:14.123Z,14.02
2018-05-17T21:06:41.646Z,13.86
2018-05-17T21:09:09.146Z,13.69
2018-05-17T21:11:38.812Z,13.62
2018-05-17T21:14:06.432Z,13.54
2018-05-17T21:16:33.937Z,13.37
2018-05-17T21:19:01.432Z,13.33
2018-05-17T21:21:28.921Z,13.36
2018-05-17T21:23:56.417Z,13.27
2018-05-17T21:26:24.167Z,13.28
2018-05-17T21:28:51.663Z,13.31
2018-05-17T21:31:19.161Z,13.25
2018-05-17T21:33:46.694Z,13.20
2018-05-17T21:36:14.194Z,13.13
2018-05-17T21:38:41.682Z,13.04
2018-05-17T21:41:09.181Z,13.05
2018-05-17T21:43:36.671Z,13.02
2018-05-17T21:46:04.174Z,12.95
2018-05-17T21:48:31.680Z,12.95
2018-05-17T21:50:59.298Z,12.96
2018-05-17T21:53:26.810Z,12.95
2018-05-17T21:55:54.318Z,12.96
2018-05-17T21:58:21.848Z,12.95
2018-05-17T22:00:49.345Z,13.00
2018-05-17T22:03:16.856Z,13.12
2018-05-17T22:05:44.457Z,13.19
2018-05-17T22:08:12.727Z,13.22
2018-05-17T22:10:40.247Z,13.28
2018-05-17T22:13:07.770Z,13.28
2018-05-17T22:15:35.285Z,13.30
2018-05-17T22:18:02.798Z,13.26
2018-05-17T22:20:30.294Z,13.20
2018-05-17T22:22:57.772Z,13.06
2018-05-17T22:25:25.265Z,13.08
2018-05-17T22:27:52.787Z,12.95
2018-05-17T22:30:20.294Z,12.77
2018-05-17T22:32:47.808Z,12.61
2018-05-17T22:35:15.338Z,12.56
2018-05-17T22:37:42.859Z,12.62
2018-05-17T22:40:10.366Z,12.58
2018-05-17T22:42:37.902Z,12.60
2018-05-17T22:45:05.408Z,12.54
2018-05-17T22:47:32.884Z,12.58
2018-05-17T22:50:00.400Z,12.50
2018-05-17T22:52:27.887Z,12.46
2018-05-17T22:54:55.402Z,12.43
2018-05-17T22:57:34.804Z,12.47
2018-05-17T23:00:02.300Z,12.41
2018-05-17T23:02:29.817Z,12.41
2018-05-17T23:04:57.320Z,12.45
2018-05-17T23:07:24.817Z,12.38
2018-05-17T23:09:52.325Z,12.35
2018-05-17T23:12:19.829Z,12.31
2018-05-17T23:14:47.359Z,12.27
2018-05-17T23:17:14.866Z,12.22
2018-05-17T23:19:42.384Z,12.18
2018-05-17T23:22:09.905Z,12.09
2018-05-17T23:24:37.414Z,12.03
2018-05-17T23:27:04.909Z,11.93
2018-05-17T23:29:32.430Z,11.93
2018-05-17T23:31:59.970Z,11.90
2018-05-17T23:34:27.549Z,11.79
2018-05-17T23:36:55.053Z,11.76
2018-05-17T23:39:22.544Z,11.84
2018-05-17T23:41:50.076Z,11.76
2018-05-17T23:44:17.613Z,11.72
2018-05-17T23:46:45.106Z,11.66
2018-05-17T23:49:12.620Z,11.63
2018-05-17T23:51:40.130Z,11.67
2018-05-17T23:54:07.635Z,11.66
2018-05-17T23:56:35.124Z,11.64
2018-05-17T23:59:02.642Z,11.67
